sensor_id;sensor_type;location;lat;lon;timestamp;P1;durP1;ratioP1;P2;durP2;ratioP2
13408;SDS011;6775;49.574;11.170;2022-12-10T00:01:12;16.63;;;11.00;;
13408;SDS011;6775;49.574;11.170;2022-12-10T00:03:41;17.23;;;10.60;;
13408;SDS011;6775;49.574;11.170;2022-12-10T00:06:10;22.63;;;11.97;;
13408;SDS011;6775;49.574;11.170;2022-12-10T00:08:40;15.90;;;10.20;;
13408;SDS011;6775;49.574;11.170;2022-12-10T00:11:09;15.87;;;10.60;;
13408;SDS011;6775;49.574;11.170;2022-12-10T00:13:38;17.00;;;10.80;;
13408;SDS011;6775;49.574;11.170;2022-12-10T00:16:07;15.80;;;10.73;;
13408;SDS011;6775;49.574;11.170;2022-12-10T00:18:37;17.00;;;9.43;;
13408;SDS011;6775;49.574;11.170;2022-12-10T00:21:05;14.97;;;9.07;;
13408;SDS011;6775;49.574;11.170;2022-12-10T00:23:35;17.40;;;10.20;;
13408;SDS011;6775;49.574;11.170;2022-12-10T00:26:05;16.60;;;10.37;;
13408;SDS011;6775;49.574;11.170;2022-12-10T00:28:34;16.63;;;9.40;;
13408;SDS011;6775;49.574;11.170;2022-12-10T00:31:02;13.93;;;9.73;;
13408;SDS011;6775;49.574;11.170;2022-12-10T00:33:31;14.03;;;9.77;;
13408;SDS011;6775;49.574;11.170;2022-12-10T00:36:03;14.70;;;8.77;;
13408;SDS011;6775;49.574;11.170;2022-12-10T00:38:31;14.37;;;9.10;;
13408;SDS011;6775;49.574;11.170;2022-12-10T00:40:59;14.93;;;9.07;;
13408;SDS011;6775;49.574;11.170;2022-12-10T00:43:28;15.57;;;10.40;;
13408;SDS011;6775;49.574;11.170;2022-12-10T00:45:56;16.53;;;10.17;;
13408;SDS011;6775;49.574;11.170;2022-12-10T00:48:24;16.70;;;9.43;;
13408;SDS011;6775;49.574;11.170;2022-12-10T00:50:56;15.10;;;9.47;;
13408;SDS011;6775;49.574;11.170;2022-12-10T00:53:25;17.20;;;9.63;;
13408;SDS011;6775;49.574;11.170;2022-12-10T00:55:54;13.93;;;9.63;;
13408;SDS011;6775;49.574;11.170;2022-12-10T00:58:23;16.93;;;10.60;;
13408;SDS011;6775;49.574;11.170;2022-12-10T01:01:01;13.90;;;9.83;;
13408;SDS011;6775;49.574;11.170;2022-12-10T01:03:34;15.80;;;10.13;;
13408;SDS011;6775;49.574;11.170;2022-12-10T01:06:09;18.17;;;10.13;;
13408;SDS011;6775;49.574;11.170;2022-12-10T01:08:38;18.27;;;10.10;;
13408;SDS011;6775;49.574;11.170;2022-12-10T01:11:07;13.97;;;9.47;;
13408;SDS011;6775;49.574;11.170;2022-12-10T01:13:35;18.10;;;10.47;;
13408;SDS011;6775;49.574;11.170;2022-12-10T01:16:06;18.50;;;10.10;;
13408;SDS011;6775;49.574;11.170;2022-12-10T01:18:35;17.07;;;10.27;;
13408;SDS011;6775;49.574;11.170;2022-12-10T01:21:04;17.77;;;10.87;;
13408;SDS011;6775;49.574;11.170;2022-12-10T01:23:34;16.37;;;10.50;;
13408;SDS011;6775;49.574;11.170;2022-12-10T01:26:03;17.43;;;10.33;;
13408;SDS011;6775;49.574;11.170;2022-12-10T01:28:33;15.50;;;9.13;;
13408;SDS011;6775;49.574;11.170;2022-12-10T01:31:02;15.70;;;9.50;;
13408;SDS011;6775;49.574;11.170;2022-12-10T01:33:33;16.47;;;9.90;;
13408;SDS011;6775;49.574;11.170;2022-12-10T01:36:02;18.50;;;9.93;;
13408;SDS011;6775;49.574;11.170;2022-12-10T01:38:31;15.47;;;9.40;;
13408;SDS011;6775;49.574;11.170;2022-12-10T01:40:59;17.07;;;9.83;;
13408;SDS011;6775;49.574;11.170;2022-12-10T01:43:27;14.30;;;9.90;;
13408;SDS011;6775;49.574;11.170;2022-12-10T01:46:16;15.00;;;9.90;;
13408;SDS011;6775;49.574;11.170;2022-12-10T01:48:45;14.83;;;9.93;;
13408;SDS011;6775;49.574;11.170;2022-12-10T01:51:14;12.73;;;9.30;;
13408;SDS011;6775;49.574;11.170;2022-12-10T01:53:43;13.73;;;8.60;;
13408;SDS011;6775;49.574;11.170;2022-12-10T01:56:12;14.10;;;9.37;;
13408;SDS011;6775;49.574;11.170;2022-12-10T01:58:42;17.13;;;9.87;;
13408;SDS011;6775;49.574;11.170;2022-12-10T02:01:11;16.40;;;9.63;;
13408;SDS011;6775;49.574;11.170;2022-12-10T02:04:03;15.10;;;9.30;;
13408;SDS011;6775;49.574;11.170;2022-12-10T02:06:41;13.53;;;8.83;;
13408;SDS011;6775;49.574;11.170;2022-12-10T02:09:16;16.93;;;9.93;;
13408;SDS011;6775;49.574;11.170;2022-12-10T02:11:57;17.50;;;9.87;;
13408;SDS011;6775;49.574;11.170;2022-12-10T02:14:34;17.43;;;10.50;;
13408;SDS011;6775;49.574;11.170;2022-12-10T02:17:12;14.57;;;9.23;;
13408;SDS011;6775;49.574;11.170;2022-12-10T02:19:51;17.70;;;9.93;;
13408;SDS011;6775;49.574;11.170;2022-12-10T02:22:35;15.17;;;9.33;;
13408;SDS011;6775;49.574;11.170;2022-12-10T02:25:06;13.47;;;8.50;;
13408;SDS011;6775;49.574;11.170;2022-12-10T02:27:39;13.77;;;8.93;;
13408;SDS011;6775;49.574;11.170;2022-12-10T02:30:13;17.17;;;10.13;;
13408;SDS011;6775;49.574;11.170;2022-12-10T02:32:41;16.53;;;10.00;;
13408;SDS011;6775;49.574;11.170;2022-12-10T02:35:14;14.73;;;8.87;;
13408;SDS011;6775;49.574;11.170;2022-12-10T02:37:46;16.47;;;9.70;;
13408;SDS011;6775;49.574;11.170;2022-12-10T02:40:17;17.50;;;10.27;;
13408;SDS011;6775;49.574;11.170;2022-12-10T02:42:50;17.67;;;10.93;;
13408;SDS011;6775;49.574;11.170;2022-12-10T02:45:20;16.67;;;9.87;;
13408;SDS011;6775;49.574;11.170;2022-12-10T02:47:50;15.97;;;10.37;;
13408;SDS011;6775;49.574;11.170;2022-12-10T02:50:21;16.83;;;9.77;;
13408;SDS011;6775;49.574;11.170;2022-12-10T02:52:49;18.53;;;10.50;;
13408;SDS011;6775;49.574;11.170;2022-12-10T02:55:18;14.30;;;8.90;;
13408;SDS011;6775;49.574;11.170;2022-12-10T02:57:50;15.03;;;9.07;;
13408;SDS011;6775;49.574;11.170;2022-12-10T03:00:30;14.37;;;9.47;;
13408;SDS011;6775;49.574;11.170;2022-12-10T03:03:07;14.73;;;8.80;;
13408;SDS011;6775;49.574;11.170;2022-12-10T03:05:51;15.00;;;9.40;;
13408;SDS011;6775;49.574;11.170;2022-12-10T03:08:26;15.63;;;9.87;;
13408;SDS011;6775;49.574;11.170;2022-12-10T03:11:01;18.27;;;10.30;;
13408;SDS011;6775;49.574;11.170;2022-12-10T03:13:36;14.70;;;8.93;;
13408;SDS011;6775;49.574;11.170;2022-12-10T03:16:08;13.47;;;8.93;;
13408;SDS011;6775;49.574;11.170;2022-12-10T03:18:37;15.53;;;9.67;;
13408;SDS011;6775;49.574;11.170;2022-12-10T03:21:06;15.87;;;9.27;;
13408;SDS011;6775;49.574;11.170;2022-12-10T03:23:36;15.80;;;9.90;;
13408;SDS011;6775;49.574;11.170;2022-12-10T03:26:07;14.67;;;9.77;;
13408;SDS011;6775;49.574;11.170;2022-12-10T03:28:38;14.77;;;9.33;;
13408;SDS011;6775;49.574;11.170;2022-12-10T03:31:10;13.83;;;9.50;;
13408;SDS011;6775;49.574;11.170;2022-12-10T03:33:40;19.07;;;10.17;;
13408;SDS011;6775;49.574;11.170;2022-12-10T03:36:08;17.47;;;10.70;;
13408;SDS011;6775;49.574;11.170;2022-12-10T03:38:38;16.13;;;9.33;;
13408;SDS011;6775;49.574;11.170;2022-12-10T03:41:06;14.33;;;9.50;;
13408;SDS011;6775;49.574;11.170;2022-12-10T03:43:34;13.00;;;8.70;;
13408;SDS011;6775;49.574;11.170;2022-12-10T03:46:02;13.03;;;9.00;;
13408;SDS011;6775;49.574;11.170;2022-12-10T03:48:32;18.27;;;10.17;;
13408;SDS011;6775;49.574;11.170;2022-12-10T03:51:00;15.57;;;9.67;;
13408;SDS011;6775;49.574;11.170;2022-12-10T03:53:27;17.20;;;11.00;;
13408;SDS011;6775;49.574;11.170;2022-12-10T03:55:55;14.87;;;9.30;;
13408;SDS011;6775;49.574;11.170;2022-12-10T03:58:23;16.23;;;9.70;;
13408;SDS011;6775;49.574;11.170;2022-12-10T04:00:51;12.73;;;8.90;;
13408;SDS011;6775;49.574;11.170;2022-12-10T04:03:19;14.30;;;9.23;;
13408;SDS011;6775;49.574;11.170;2022-12-10T04:05:48;15.17;;;10.17;;
13408;SDS011;6775;49.574;11.170;2022-12-10T04:08:16;12.43;;;9.30;;
13408;SDS011;6775;49.574;11.170;2022-12-10T04:10:44;12.53;;;9.17;;
13408;SDS011;6775;49.574;11.170;2022-12-10T04:13:12;15.70;;;9.33;;
13408;SDS011;6775;49.574;11.170;2022-12-10T04:15:57;16.43;;;9.17;;
13408;SDS011;6775;49.574;11.170;2022-12-10T04:18:43;15.57;;;10.30;;
13408;SDS011;6775;49.574;11.170;2022-12-10T04:21:12;15.20;;;9.73;;
13408;SDS011;6775;49.574;11.170;2022-12-10T04:23:57;12.90;;;8.90;;
13408;SDS011;6775;49.574;11.170;2022-12-10T04:26:43;13.57;;;9.27;;
13408;SDS011;6775;49.574;11.170;2022-12-10T04:29:21;14.47;;;9.30;;
13408;SDS011;6775;49.574;11.170;2022-12-10T04:31:51;16.07;;;9.70;;
13408;SDS011;6775;49.574;11.170;2022-12-10T04:34:20;17.20;;;10.40;;
13408;SDS011;6775;49.574;11.170;2022-12-10T04:36:49;14.57;;;10.30;;
13408;SDS011;6775;49.574;11.170;2022-12-10T04:39:18;16.23;;;9.63;;
13408;SDS011;6775;49.574;11.170;2022-12-10T04:41:47;13.30;;;9.13;;
13408;SDS011;6775;49.574;11.170;2022-12-10T04:44:15;14.70;;;9.30;;
13408;SDS011;6775;49.574;11.170;2022-12-10T04:46:44;15.33;;;9.13;;
13408;SDS011;6775;49.574;11.170;2022-12-10T04:49:12;14.60;;;9.93;;
13408;SDS011;6775;49.574;11.170;2022-12-10T04:51:41;14.23;;;10.00;;
13408;SDS011;6775;49.574;11.170;2022-12-10T04:54:10;14.17;;;9.23;;
13408;SDS011;6775;49.574;11.170;2022-12-10T04:56:39;15.20;;;9.07;;
13408;SDS011;6775;49.574;11.170;2022-12-10T04:59:07;18.70;;;10.80;;
13408;SDS011;6775;49.574;11.170;2022-12-10T05:01:36;16.63;;;10.00;;
13408;SDS011;6775;49.574;11.170;2022-12-10T05:04:05;15.73;;;10.20;;
13408;SDS011;6775;49.574;11.170;2022-12-10T05:06:35;16.07;;;9.93;;
13408;SDS011;6775;49.574;11.170;2022-12-10T05:09:03;15.60;;;9.93;;
13408;SDS011;6775;49.574;11.170;2022-12-10T05:11:33;14.97;;;9.93;;
13408;SDS011;6775;49.574;11.170;2022-12-10T05:14:01;15.87;;;10.67;;
13408;SDS011;6775;49.574;11.170;2022-12-10T05:16:30;15.17;;;9.50;;
13408;SDS011;6775;49.574;11.170;2022-12-10T05:18:59;14.80;;;9.47;;
13408;SDS011;6775;49.574;11.170;2022-12-10T05:21:28;16.70;;;9.70;;
13408;SDS011;6775;49.574;11.170;2022-12-10T05:24:17;16.60;;;10.57;;
13408;SDS011;6775;49.574;11.170;2022-12-10T05:26:46;16.50;;;9.97;;
13408;SDS011;6775;49.574;11.170;2022-12-10T05:29:17;15.37;;;10.43;;
13408;SDS011;6775;49.574;11.170;2022-12-10T05:31:46;15.50;;;10.27;;
13408;SDS011;6775;49.574;11.170;2022-12-10T05:34:14;16.43;;;10.20;;
13408;SDS011;6775;49.574;11.170;2022-12-10T05:36:42;13.87;;;10.23;;
13408;SDS011;6775;49.574;11.170;2022-12-10T05:39:10;15.67;;;10.03;;
13408;SDS011;6775;49.574;11.170;2022-12-10T05:41:38;16.00;;;10.10;;
13408;SDS011;6775;49.574;11.170;2022-12-10T05:44:08;17.67;;;10.67;;
13408;SDS011;6775;49.574;11.170;2022-12-10T05:46:37;16.30;;;9.50;;
13408;SDS011;6775;49.574;11.170;2022-12-10T05:49:05;12.87;;;9.60;;
13408;SDS011;6775;49.574;11.170;2022-12-10T05:51:35;16.17;;;9.50;;
13408;SDS011;6775;49.574;11.170;2022-12-10T05:54:04;18.83;;;11.03;;
13408;SDS011;6775;49.574;11.170;2022-12-10T05:56:33;20.20;;;9.90;;
13408;SDS011;6775;49.574;11.170;2022-12-10T05:59:02;16.67;;;11.77;;
13408;SDS011;6775;49.574;11.170;2022-12-10T06:01:39;16.53;;;10.73;;
13408;SDS011;6775;49.574;11.170;2022-12-10T06:04:08;16.00;;;11.33;;
13408;SDS011;6775;49.574;11.170;2022-12-10T06:06:37;17.43;;;11.20;;
13408;SDS011;6775;49.574;11.170;2022-12-10T06:09:06;17.97;;;9.67;;
13408;SDS011;6775;49.574;11.170;2022-12-10T06:11:37;15.13;;;10.83;;
13408;SDS011;6775;49.574;11.170;2022-12-10T06:14:05;16.30;;;10.23;;
13408;SDS011;6775;49.574;11.170;2022-12-10T06:16:33;15.03;;;10.10;;
13408;SDS011;6775;49.574;11.170;2022-12-10T06:19:02;15.63;;;9.23;;
13408;SDS011;6775;49.574;11.170;2022-12-10T06:21:30;14.93;;;9.87;;
13408;SDS011;6775;49.574;11.170;2022-12-10T06:23:58;15.17;;;10.10;;
13408;SDS011;6775;49.574;11.170;2022-12-10T06:26:26;14.43;;;9.40;;
13408;SDS011;6775;49.574;11.170;2022-12-10T06:28:54;13.53;;;9.00;;
13408;SDS011;6775;49.574;11.170;2022-12-10T06:31:22;14.30;;;9.47;;
13408;SDS011;6775;49.574;11.170;2022-12-10T06:33:50;14.77;;;10.17;;
13408;SDS011;6775;49.574;11.170;2022-12-10T06:36:20;17.90;;;10.20;;
13408;SDS011;6775;49.574;11.170;2022-12-10T06:38:48;15.83;;;9.17;;
13408;SDS011;6775;49.574;11.170;2022-12-10T06:41:17;15.87;;;9.97;;
13408;SDS011;6775;49.574;11.170;2022-12-10T06:43:46;16.90;;;9.07;;
13408;SDS011;6775;49.574;11.170;2022-12-10T06:46:15;19.03;;;11.27;;
13408;SDS011;6775;49.574;11.170;2022-12-10T06:48:44;21.93;;;12.13;;
13408;SDS011;6775;49.574;11.170;2022-12-10T06:51:13;22.10;;;11.83;;
13408;SDS011;6775;49.574;11.170;2022-12-10T06:53:42;26.53;;;13.43;;
13408;SDS011;6775;49.574;11.170;2022-12-10T06:56:12;25.00;;;14.17;;
13408;SDS011;6775;49.574;11.170;2022-12-10T06:58:41;22.27;;;11.73;;
13408;SDS011;6775;49.574;11.170;2022-12-10T07:01:10;17.07;;;10.03;;
13408;SDS011;6775;49.574;11.170;2022-12-10T07:03:39;15.20;;;9.57;;
13408;SDS011;6775;49.574;11.170;2022-12-10T07:06:09;16.13;;;9.00;;
13408;SDS011;6775;49.574;11.170;2022-12-10T07:08:37;15.00;;;10.07;;
13408;SDS011;6775;49.574;11.170;2022-12-10T07:11:08;13.83;;;8.90;;
13408;SDS011;6775;49.574;11.170;2022-12-10T07:13:38;11.37;;;8.37;;
13408;SDS011;6775;49.574;11.170;2022-12-10T07:16:11;15.93;;;8.87;;
13408;SDS011;6775;49.574;11.170;2022-12-10T07:18:40;13.97;;;9.07;;
13408;SDS011;6775;49.574;11.170;2022-12-10T07:21:14;17.07;;;9.63;;
13408;SDS011;6775;49.574;11.170;2022-12-10T07:23:42;16.43;;;9.57;;
13408;SDS011;6775;49.574;11.170;2022-12-10T07:26:12;13.73;;;9.50;;
13408;SDS011;6775;49.574;11.170;2022-12-10T07:28:40;15.83;;;9.73;;
13408;SDS011;6775;49.574;11.170;2022-12-10T07:31:18;16.77;;;10.00;;
13408;SDS011;6775;49.574;11.170;2022-12-10T07:33:46;15.77;;;9.97;;
13408;SDS011;6775;49.574;11.170;2022-12-10T07:36:14;13.80;;;9.30;;
13408;SDS011;6775;49.574;11.170;2022-12-10T07:38:42;14.53;;;10.20;;
13408;SDS011;6775;49.574;11.170;2022-12-10T07:41:12;16.50;;;10.23;;
13408;SDS011;6775;49.574;11.170;2022-12-10T07:43:41;17.70;;;10.80;;
13408;SDS011;6775;49.574;11.170;2022-12-10T07:46:11;15.07;;;10.03;;
13408;SDS011;6775;49.574;11.170;2022-12-10T07:48:40;16.90;;;10.93;;
13408;SDS011;6775;49.574;11.170;2022-12-10T07:51:09;13.93;;;9.50;;
13408;SDS011;6775;49.574;11.170;2022-12-10T07:53:37;17.77;;;10.33;;
13408;SDS011;6775;49.574;11.170;2022-12-10T07:56:06;16.50;;;10.13;;
13408;SDS011;6775;49.574;11.170;2022-12-10T07:58:35;20.07;;;12.00;;
13408;SDS011;6775;49.574;11.170;2022-12-10T08:01:06;16.37;;;11.10;;
13408;SDS011;6775;49.574;11.170;2022-12-10T08:03:35;15.73;;;10.87;;
13408;SDS011;6775;49.574;11.170;2022-12-10T08:06:05;28.43;;;16.67;;
13408;SDS011;6775;49.574;11.170;2022-12-10T08:08:35;32.30;;;20.03;;
13408;SDS011;6775;49.574;11.170;2022-12-10T08:11:04;27.27;;;16.13;;
13408;SDS011;6775;49.574;11.170;2022-12-10T08:13:33;49.83;;;21.97;;
13408;SDS011;6775;49.574;11.170;2022-12-10T08:16:03;52.43;;;24.10;;
13408;SDS011;6775;49.574;11.170;2022-12-10T08:18:33;26.73;;;16.73;;
13408;SDS011;6775;49.574;11.170;2022-12-10T08:21:03;21.90;;;13.33;;
13408;SDS011;6775;49.574;11.170;2022-12-10T08:23:31;14.80;;;10.40;;
13408;SDS011;6775;49.574;11.170;2022-12-10T08:26:01;19.40;;;10.77;;
13408;SDS011;6775;49.574;11.170;2022-12-10T08:28:30;17.33;;;11.10;;
13408;SDS011;6775;49.574;11.170;2022-12-10T08:30:58;18.07;;;11.23;;
13408;SDS011;6775;49.574;11.170;2022-12-10T08:33:27;21.87;;;12.40;;
13408;SDS011;6775;49.574;11.170;2022-12-10T08:35:56;19.73;;;14.30;;
13408;SDS011;6775;49.574;11.170;2022-12-10T08:38:25;16.60;;;12.43;;
13408;SDS011;6775;49.574;11.170;2022-12-10T08:40:53;19.13;;;12.23;;
13408;SDS011;6775;49.574;11.170;2022-12-10T08:43:21;18.23;;;11.47;;
13408;SDS011;6775;49.574;11.170;2022-12-10T08:45:50;17.77;;;11.33;;
13408;SDS011;6775;49.574;11.170;2022-12-10T08:48:18;19.70;;;12.77;;
13408;SDS011;6775;49.574;11.170;2022-12-10T08:50:47;15.73;;;11.07;;
13408;SDS011;6775;49.574;11.170;2022-12-10T08:53:15;19.33;;;11.73;;
13408;SDS011;6775;49.574;11.170;2022-12-10T08:55:43;21.10;;;12.33;;
13408;SDS011;6775;49.574;11.170;2022-12-10T08:58:14;17.40;;;11.60;;
13408;SDS011;6775;49.574;11.170;2022-12-10T09:00:42;17.63;;;11.63;;
13408;SDS011;6775;49.574;11.170;2022-12-10T09:03:10;15.87;;;11.20;;
13408;SDS011;6775;49.574;11.170;2022-12-10T09:05:38;16.53;;;10.37;;
13408;SDS011;6775;49.574;11.170;2022-12-10T09:08:07;16.27;;;11.77;;
13408;SDS011;6775;49.574;11.170;2022-12-10T09:10:36;17.93;;;12.10;;
13408;SDS011;6775;49.574;11.170;2022-12-10T09:13:04;19.73;;;12.23;;
13408;SDS011;6775;49.574;11.170;2022-12-10T09:15:33;20.87;;;12.87;;
13408;SDS011;6775;49.574;11.170;2022-12-10T09:18:01;20.03;;;12.73;;
13408;SDS011;6775;49.574;11.170;2022-12-10T09:20:29;20.20;;;13.07;;
13408;SDS011;6775;49.574;11.170;2022-12-10T09:22:57;22.13;;;14.10;;
13408;SDS011;6775;49.574;11.170;2022-12-10T09:25:26;19.27;;;12.53;;
13408;SDS011;6775;49.574;11.170;2022-12-10T09:27:54;21.33;;;12.50;;
13408;SDS011;6775;49.574;11.170;2022-12-10T09:30:22;19.87;;;12.40;;
13408;SDS011;6775;49.574;11.170;2022-12-10T09:32:50;16.67;;;11.00;;
13408;SDS011;6775;49.574;11.170;2022-12-10T09:35:18;19.90;;;12.53;;
13408;SDS011;6775;49.574;11.170;2022-12-10T09:37:45;19.70;;;11.70;;
13408;SDS011;6775;49.574;11.170;2022-12-10T09:40:14;17.63;;;11.47;;
13408;SDS011;6775;49.574;11.170;2022-12-10T09:42:46;18.93;;;12.07;;
13408;SDS011;6775;49.574;11.170;2022-12-10T09:45:21;19.07;;;12.27;;
13408;SDS011;6775;49.574;11.170;2022-12-10T09:47:58;18.63;;;11.23;;
13408;SDS011;6775;49.574;11.170;2022-12-10T09:50:33;19.17;;;12.13;;
13408;SDS011;6775;49.574;11.170;2022-12-10T09:53:08;19.30;;;12.17;;
13408;SDS011;6775;49.574;11.170;2022-12-10T09:55:44;16.97;;;11.87;;
13408;SDS011;6775;49.574;11.170;2022-12-10T09:58:16;21.47;;;12.23;;
13408;SDS011;6775;49.574;11.170;2022-12-10T10:00:55;19.97;;;12.13;;
13408;SDS011;6775;49.574;11.170;2022-12-10T10:03:26;18.30;;;12.30;;
13408;SDS011;6775;49.574;11.170;2022-12-10T10:05:58;16.40;;;10.93;;
13408;SDS011;6775;49.574;11.170;2022-12-10T10:08:27;20.57;;;12.30;;
13408;SDS011;6775;49.574;11.170;2022-12-10T10:10:58;18.23;;;13.50;;
13408;SDS011;6775;49.574;11.170;2022-12-10T10:13:30;20.60;;;13.70;;
13408;SDS011;6775;49.574;11.170;2022-12-10T10:16:15;19.80;;;13.13;;
13408;SDS011;6775;49.574;11.170;2022-12-10T10:18:48;21.87;;;13.23;;
13408;SDS011;6775;49.574;11.170;2022-12-10T10:21:22;19.83;;;13.77;;
13408;SDS011;6775;49.574;11.170;2022-12-10T10:23:51;22.40;;;13.90;;
13408;SDS011;6775;49.574;11.170;2022-12-10T10:26:21;21.97;;;13.17;;
13408;SDS011;6775;49.574;11.170;2022-12-10T10:28:55;20.63;;;13.87;;
13408;SDS011;6775;49.574;11.170;2022-12-10T10:31:27;19.97;;;13.23;;
13408;SDS011;6775;49.574;11.170;2022-12-10T10:33:57;21.60;;;14.03;;
13408;SDS011;6775;49.574;11.170;2022-12-10T10:36:27;23.00;;;14.50;;
13408;SDS011;6775;49.574;11.170;2022-12-10T10:38:56;22.73;;;14.47;;
13408;SDS011;6775;49.574;11.170;2022-12-10T10:41:35;21.37;;;14.47;;
13408;SDS011;6775;49.574;11.170;2022-12-10T10:44:12;19.47;;;13.33;;
13408;SDS011;6775;49.574;11.170;2022-12-10T10:46:42;18.70;;;13.20;;
13408;SDS011;6775;49.574;11.170;2022-12-10T10:49:13;21.87;;;14.80;;
13408;SDS011;6775;49.574;11.170;2022-12-10T10:51:46;22.97;;;14.33;;
13408;SDS011;6775;49.574;11.170;2022-12-10T10:54:17;22.83;;;14.50;;
13408;SDS011;6775;49.574;11.170;2022-12-10T10:57:01;33.53;;;18.53;;
13408;SDS011;6775;49.574;11.170;2022-12-10T10:59:32;43.20;;;23.50;;
13408;SDS011;6775;49.574;11.170;2022-12-10T11:02:04;32.00;;;19.13;;
13408;SDS011;6775;49.574;11.170;2022-12-10T11:04:47;33.43;;;19.90;;
13408;SDS011;6775;49.574;11.170;2022-12-10T11:07:19;36.93;;;21.40;;
13408;SDS011;6775;49.574;11.170;2022-12-10T11:09:51;30.07;;;17.33;;
13408;SDS011;6775;49.574;11.170;2022-12-10T11:12:28;26.97;;;16.40;;
13408;SDS011;6775;49.574;11.170;2022-12-10T11:15:02;22.90;;;14.50;;
13408;SDS011;6775;49.574;11.170;2022-12-10T11:17:54;23.80;;;15.73;;
13408;SDS011;6775;49.574;11.170;2022-12-10T11:20:23;19.07;;;13.13;;
13408;SDS011;6775;49.574;11.170;2022-12-10T11:22:53;19.60;;;13.30;;
13408;SDS011;6775;49.574;11.170;2022-12-10T11:25:25;21.47;;;13.43;;
13408;SDS011;6775;49.574;11.170;2022-12-10T11:28:07;19.67;;;12.33;;
13408;SDS011;6775;49.574;11.170;2022-12-10T11:30:50;18.97;;;12.87;;
13408;SDS011;6775;49.574;11.170;2022-12-10T11:33:27;18.70;;;11.93;;
13408;SDS011;6775;49.574;11.170;2022-12-10T11:36:02;19.13;;;12.47;;
13408;SDS011;6775;49.574;11.170;2022-12-10T11:38:38;20.27;;;12.73;;
13408;SDS011;6775;49.574;11.170;2022-12-10T11:41:14;17.50;;;11.00;;
13408;SDS011;6775;49.574;11.170;2022-12-10T11:43:52;20.40;;;12.80;;
13408;SDS011;6775;49.574;11.170;2022-12-10T11:46:34;18.17;;;11.90;;
13408;SDS011;6775;49.574;11.170;2022-12-10T11:49:14;18.10;;;12.60;;
13408;SDS011;6775;49.574;11.170;2022-12-10T11:51:52;18.37;;;11.33;;
13408;SDS011;6775;49.574;11.170;2022-12-10T11:54:34;22.87;;;13.33;;
13408;SDS011;6775;49.574;11.170;2022-12-10T11:57:28;18.57;;;11.33;;
13408;SDS011;6775;49.574;11.170;2022-12-10T12:00:02;19.20;;;12.77;;
13408;SDS011;6775;49.574;11.170;2022-12-10T12:05:55;23.87;;;14.03;;
13408;SDS011;6775;49.574;11.170;2022-12-10T12:08:41;21.67;;;14.30;;
13408;SDS011;6775;49.574;11.170;2022-12-10T12:11:21;18.87;;;11.93;;
13408;SDS011;6775;49.574;11.170;2022-12-10T12:13:57;24.50;;;14.60;;
13408;SDS011;6775;49.574;11.170;2022-12-10T12:16:30;19.20;;;13.73;;
13408;SDS011;6775;49.574;11.170;2022-12-10T12:19:03;19.07;;;12.97;;
13408;SDS011;6775;49.574;11.170;2022-12-10T12:21:37;19.93;;;12.33;;
13408;SDS011;6775;49.574;11.170;2022-12-10T12:24:09;20.87;;;13.80;;
13408;SDS011;6775;49.574;11.170;2022-12-10T12:26:43;24.13;;;14.83;;
13408;SDS011;6775;49.574;11.170;2022-12-10T12:29:18;22.83;;;13.13;;
13408;SDS011;6775;49.574;11.170;2022-12-10T12:31:53;21.00;;;12.63;;
13408;SDS011;6775;49.574;11.170;2022-12-10T12:34:25;22.10;;;13.60;;
13408;SDS011;6775;49.574;11.170;2022-12-10T12:37:01;21.83;;;13.70;;
13408;SDS011;6775;49.574;11.170;2022-12-10T12:39:32;20.60;;;13.07;;
13408;SDS011;6775;49.574;11.170;2022-12-10T12:42:06;21.10;;;13.43;;
13408;SDS011;6775;49.574;11.170;2022-12-10T12:44:48;24.83;;;13.90;;
13408;SDS011;6775;49.574;11.170;2022-12-10T12:47:26;28.43;;;15.97;;
13408;SDS011;6775;49.574;11.170;2022-12-10T12:50:03;23.67;;;15.23;;
13408;SDS011;6775;49.574;11.170;2022-12-10T12:52:43;22.23;;;14.60;;
13408;SDS011;6775;49.574;11.170;2022-12-10T12:55:16;27.50;;;15.97;;
13408;SDS011;6775;49.574;11.170;2022-12-10T12:57:49;25.50;;;14.90;;
13408;SDS011;6775;49.574;11.170;2022-12-10T13:00:22;23.57;;;14.50;;
13408;SDS011;6775;49.574;11.170;2022-12-10T13:02:53;27.20;;;16.37;;
13408;SDS011;6775;49.574;11.170;2022-12-10T13:05:28;24.93;;;15.30;;
13408;SDS011;6775;49.574;11.170;2022-12-10T13:08:20;30.80;;;18.00;;
13408;SDS011;6775;49.574;11.170;2022-12-10T13:10:53;24.63;;;15.07;;
13408;SDS011;6775;49.574;11.170;2022-12-10T13:13:25;25.07;;;15.20;;
13408;SDS011;6775;49.574;11.170;2022-12-10T13:21:59;27.23;;;18.03;;
13408;SDS011;6775;49.574;11.170;2022-12-10T13:27:32;26.43;;;16.13;;
13408;SDS011;6775;49.574;11.170;2022-12-10T13:30:03;25.97;;;17.13;;
13408;SDS011;6775;49.574;11.170;2022-12-10T13:32:53;29.13;;;16.87;;
13408;SDS011;6775;49.574;11.170;2022-12-10T13:35:30;28.77;;;17.10;;
13408;SDS011;6775;49.574;11.170;2022-12-10T13:38:05;29.13;;;16.87;;
13408;SDS011;6775;49.574;11.170;2022-12-10T13:40:49;29.70;;;17.30;;
13408;SDS011;6775;49.574;11.170;2022-12-10T13:43:44;27.80;;;16.37;;
13408;SDS011;6775;49.574;11.170;2022-12-10T13:46:51;26.80;;;15.87;;
13408;SDS011;6775;49.574;11.170;2022-12-10T13:49:22;28.43;;;16.80;;
13408;SDS011;6775;49.574;11.170;2022-12-10T13:52:00;29.27;;;16.87;;
13408;SDS011;6775;49.574;11.170;2022-12-10T13:54:44;28.60;;;16.47;;
13408;SDS011;6775;49.574;11.170;2022-12-10T14:00:18;26.87;;;17.67;;
13408;SDS011;6775;49.574;11.170;2022-12-10T14:02:55;28.07;;;16.20;;
13408;SDS011;6775;49.574;11.170;2022-12-10T14:05:38;29.70;;;16.73;;
13408;SDS011;6775;49.574;11.170;2022-12-10T14:08:23;27.70;;;16.47;;
13408;SDS011;6775;49.574;11.170;2022-12-10T14:10:55;26.80;;;15.87;;
13408;SDS011;6775;49.574;11.170;2022-12-10T14:13:27;26.17;;;15.77;;
13408;SDS011;6775;49.574;11.170;2022-12-10T14:16:02;30.23;;;18.33;;
13408;SDS011;6775;49.574;11.170;2022-12-10T14:18:32;27.43;;;17.00;;
13408;SDS011;6775;49.574;11.170;2022-12-10T14:21:02;26.77;;;15.73;;
13408;SDS011;6775;49.574;11.170;2022-12-10T14:23:33;24.00;;;14.93;;
13408;SDS011;6775;49.574;11.170;2022-12-10T14:26:13;29.70;;;18.73;;
13408;SDS011;6775;49.574;11.170;2022-12-10T14:28:43;36.20;;;21.67;;
13408;SDS011;6775;49.574;11.170;2022-12-10T14:31:14;36.37;;;23.20;;
13408;SDS011;6775;49.574;11.170;2022-12-10T14:33:46;33.93;;;23.00;;
13408;SDS011;6775;49.574;11.170;2022-12-10T14:36:16;29.00;;;20.03;;
13408;SDS011;6775;49.574;11.170;2022-12-10T14:38:49;30.50;;;20.60;;
13408;SDS011;6775;49.574;11.170;2022-12-10T14:41:18;31.10;;;20.70;;
13408;SDS011;6775;49.574;11.170;2022-12-10T14:43:49;60.20;;;28.30;;
13408;SDS011;6775;49.574;11.170;2022-12-10T14:46:20;43.30;;;24.87;;
13408;SDS011;6775;49.574;11.170;2022-12-10T14:48:51;37.17;;;21.67;;
13408;SDS011;6775;49.574;11.170;2022-12-10T14:51:21;41.60;;;23.33;;
13408;SDS011;6775;49.574;11.170;2022-12-10T14:53:51;39.33;;;23.20;;
13408;SDS011;6775;49.574;11.170;2022-12-10T14:56:23;35.83;;;22.17;;
13408;SDS011;6775;49.574;11.170;2022-12-10T14:58:55;38.03;;;23.27;;
13408;SDS011;6775;49.574;11.170;2022-12-10T15:01:30;33.57;;;22.40;;
13408;SDS011;6775;49.574;11.170;2022-12-10T15:04:00;27.77;;;18.23;;
13408;SDS011;6775;49.574;11.170;2022-12-10T15:06:33;25.13;;;16.83;;
13408;SDS011;6775;49.574;11.170;2022-12-10T15:09:02;26.70;;;15.27;;